createdAt,value
2023-01-29T00:02:01.992Z,99815.25
2023-01-29T00:04:29.929Z,99807.31
2023-01-29T00:06:59.403Z,99816.38
2023-01-29T00:09:27.552Z,99813.16
2023-01-29T00:11:55.486Z,99796.66
2023-01-29T00:14:23.528Z,99822.44
2023-01-29T00:16:51.417Z,99829.06
2023-01-29T00:19:19.629Z,99824.03
2023-01-29T00:21:47.691Z,99832.09
2023-01-29T00:24:17.072Z,99818.41
2023-01-29T00:26:45.369Z,99808.81
2023-01-29T00:29:13.400Z,99834.94
2023-01-29T00:31:41.429Z,99828.38
2023-01-29T00:34:09.455Z,99843.28
2023-01-29T00:36:37.371Z,99843.91
2023-01-29T00:39:10.915Z,99841.72
2023-01-29T00:41:57.710Z,99847.25
2023-01-29T00:44:43.142Z,99829.91
2023-01-29T00:47:30.829Z,99844.59
2023-01-29T00:49:59.084Z,99825.16
2023-01-29T00:52:27.573Z,99843.00
2023-01-29T00:54:57.027Z,99854.16
2023-01-29T00:57:28.127Z,99851.09
2023-01-29T00:59:56.236Z,99846.50
2023-01-29T01:02:42.110Z,99846.84
2023-01-29T01:05:17.829Z,99847.47
2023-01-29T01:07:46.315Z,99845.97
2023-01-29T01:10:21.906Z,99848.22
2023-01-29T01:12:55.291Z,99832.28
2023-01-29T01:15:24.536Z,99851.28
2023-01-29T01:17:56.593Z,99848.50
2023-01-29T01:20:25.133Z,99850.81
2023-01-29T01:22:54.684Z,99852.00
2023-01-29T01:25:22.746Z,99853.88
2023-01-29T01:27:54.027Z,99846.13
2023-01-29T01:30:22.391Z,99839.34
2023-01-29T01:32:50.581Z,99855.00
2023-01-29T01:35:18.716Z,99851.94
2023-01-29T01:37:46.640Z,99852.44
2023-01-29T01:40:18.299Z,99855.78
2023-01-29T01:42:49.679Z,99857.59
2023-01-29T01:45:30.242Z,99851.66
2023-01-29T01:48:03.729Z,99854.72
2023-01-29T01:50:36.372Z,99850.19
2023-01-29T01:53:09.182Z,99856.44
2023-01-29T01:55:43.130Z,99851.56
2023-01-29T01:58:17.375Z,99841.09
2023-01-29T02:00:46.748Z,99854.84
2023-01-29T02:03:32.539Z,99844.56
2023-01-29T02:06:19.152Z,99851.38
2023-01-29T02:09:13.121Z,99857.50
2023-01-29T02:11:41.468Z,99855.53
2023-01-29T02:14:09.935Z,99860.00
2023-01-29T02:16:39.357Z,99858.53
2023-01-29T02:19:17.592Z,99865.53
2023-01-29T02:22:07.004Z,99866.78
2023-01-29T02:25:24.137Z,99868.47
2023-01-29T02:28:22.716Z,99878.31
2023-01-29T02:30:59.036Z,99865.72
2023-01-29T02:33:34.624Z,99885.72
2023-01-29T02:36:19.605Z,99885.72
2023-01-29T02:38:55.117Z,99887.72
2023-01-29T02:41:29.983Z,99884.81
2023-01-29T02:44:07.523Z,99879.22
2023-01-29T02:46:40.334Z,99884.88
2023-01-29T02:49:16.892Z,99888.75
2023-01-29T02:51:50.361Z,99883.00
2023-01-29T02:54:23.035Z,99884.25
2023-01-29T02:56:57.222Z,99888.16
2023-01-29T02:59:31.076Z,99883.94
2023-01-29T03:02:03.968Z,99882.66
2023-01-29T03:04:38.574Z,99880.03
2023-01-29T03:07:11.856Z,99889.50
2023-01-29T03:09:48.630Z,99887.25
2023-01-29T03:12:34.126Z,99888.00
2023-01-29T03:15:14.335Z,99892.84
2023-01-29T03:17:48.410Z,99896.56
2023-01-29T03:20:19.815Z,99898.66
2023-01-29T03:23:03.004Z,99899.13
2023-01-29T03:25:50.535Z,99908.94
2023-01-29T03:28:38.825Z,99908.31
2023-01-29T03:31:28.826Z,99905.88
2023-01-29T03:34:04.353Z,99912.56
2023-01-29T03:36:39.919Z,99914.16
2023-01-29T03:39:09.815Z,99917.06
2023-01-29T03:41:42.890Z,99897.25
2023-01-29T03:44:17.032Z,99913.25
2023-01-29T03:46:54.746Z,99919.69
2023-01-29T03:49:31.443Z,99924.66
2023-01-29T03:52:04.842Z,99919.22
2023-01-29T03:54:43.569Z,99921.31
2023-01-29T03:57:17.029Z,99928.53
2023-01-29T03:59:54.882Z,99922.81
2023-01-29T04:02:28.790Z,99924.81
2023-01-29T04:05:00.456Z,99929.22
2023-01-29T04:07:33.541Z,99934.09
2023-01-29T04:10:06.400Z,99942.00
2023-01-29T04:12:39.949Z,99924.78
2023-01-29T04:15:12.575Z,99940.69
2023-01-29T04:17:44.513Z,99947.13
2023-01-29T04:20:13.684Z,99952.47
2023-01-29T04:22:46.101Z,99945.88
2023-01-29T04:25:17.073Z,99950.53
2023-01-29T04:27:53.735Z,99933.34
2023-01-29T04:30:30.552Z,99967.19
2023-01-29T04:33:07.418Z,99960.78
2023-01-29T04:35:48.916Z,99943.06
2023-01-29T04:38:29.444Z,99964.44
2023-01-29T04:41:06.507Z,99959.47
2023-01-29T04:43:43.494Z,99970.63
2023-01-29T04:46:17.545Z,99968.38
2023-01-29T04:48:59.047Z,99972.59
2023-01-29T04:51:37.329Z,99975.31
2023-01-29T04:54:12.921Z,99964.38
2023-01-29T04:56:49.774Z,99973.28
2023-01-29T04:59:22.357Z,99978.25
2023-01-29T05:01:50.761Z,99984.00
2023-01-29T05:04:22.471Z,99978.22
2023-01-29T05:06:51.638Z,99985.13
2023-01-29T05:09:21.016Z,99982.69
2023-01-29T05:11:50.406Z,99979.56
2023-01-29T05:14:20.977Z,99980.22
2023-01-29T05:16:52.879Z,99982.94
2023-01-29T05:19:22.177Z,99986.69
2023-01-29T05:21:51.784Z,99986.84
2023-01-29T05:24:22.136Z,99988.63
2023-01-29T05:27:09.751Z,99986.63
2023-01-29T05:29:37.921Z,99993.84
2023-01-29T05:32:06.064Z,99997.81
2023-01-29T05:34:35.578Z,99994.03
2023-01-29T05:37:03.551Z,100001.16
2023-01-29T05:39:31.568Z,100001.94
2023-01-29T05:42:00.457Z,100003.09
2023-01-29T05:44:28.447Z,100004.13
2023-01-29T05:46:56.463Z,100008.78
2023-01-29T05:49:24.509Z,100001.66
2023-01-29T05:51:53.816Z,99951.47
2023-01-29T05:54:21.745Z,100017.03
2023-01-29T05:56:49.676Z,100019.13
2023-01-29T05:59:18.044Z,100031.84
2023-01-29T06:01:46.139Z,100025.00
2023-01-29T06:04:14.087Z,100026.28
2023-01-29T06:06:42.057Z,100007.28
2023-01-29T06:09:13.068Z,100029.91
2023-01-29T06:11:41.193Z,100031.72
2023-01-29T06:14:09.172Z,100037.34
2023-01-29T06:16:37.124Z,100031.28
2023-01-29T06:19:05.486Z,100032.31
2023-01-29T06:21:33.429Z,100042.53
2023-01-29T06:24:01.401Z,100031.84
2023-01-29T06:26:30.761Z,100047.03
2023-01-29T06:28:58.689Z,100046.00
2023-01-29T06:31:38.184Z,100057.78
2023-01-29T06:34:07.628Z,100066.47
2023-01-29T06:36:35.723Z,100067.31
2023-01-29T06:39:04.158Z,100061.00
2023-01-29T06:41:33.605Z,100049.19
2023-01-29T06:44:01.735Z,100047.25
2023-01-29T06:46:29.725Z,100049.75
2023-01-29T06:49:00.674Z,100070.25
2023-01-29T06:51:28.710Z,100067.22
2023-01-29T06:53:56.690Z,100067.50
2023-01-29T06:56:25.329Z,100070.97
2023-01-29T06:58:54.754Z,100073.44
2023-01-29T07:01:35.162Z,100081.19
2023-01-29T07:04:04.148Z,100080.53
2023-01-29T07:06:35.078Z,100080.66
2023-01-29T07:09:03.142Z,100097.78
2023-01-29T07:11:31.189Z,100075.47
2023-01-29T07:14:00.521Z,100068.84
2023-01-29T07:16:28.556Z,100092.38
2023-01-29T07:18:56.754Z,100095.94
2023-01-29T07:21:24.810Z,100088.19
2023-01-29T07:23:52.719Z,100097.44
2023-01-29T07:26:20.657Z,100101.53
2023-01-29T07:28:48.605Z,100096.84
2023-01-29T07:31:18.056Z,100090.50
2023-01-29T07:33:46.331Z,100089.19
2023-01-29T07:36:15.102Z,100098.25
2023-01-29T07:38:43.149Z,100092.94
2023-01-29T07:41:12.946Z,100100.50
2023-01-29T07:43:40.914Z,100098.97
2023-01-29T07:46:09.607Z,100100.66
2023-01-29T07:48:39.107Z,100094.28
2023-01-29T07:51:07.458Z,100108.09
2023-01-29T07:53:35.902Z,100106.16
2023-01-29T07:56:04.473Z,100110.72
2023-01-29T07:58:33.484Z,100110.19
2023-01-29T08:01:06.968Z,100098.97
2023-01-29T08:03:35.861Z,100117.88
2023-01-29T08:06:05.924Z,100115.41
2023-01-29T08:08:33.943Z,100117.72
2023-01-29T08:11:02.825Z,100118.16
2023-01-29T08:13:30.917Z,100127.41
2023-01-29T08:16:00.978Z,100121.00
2023-01-29T08:18:29.241Z,100125.56
2023-01-29T08:21:01.243Z,100126.94
2023-01-29T08:23:31.070Z,100109.69
2023-01-29T08:25:59.071Z,100129.59
2023-01-29T08:28:27.083Z,100125.06
2023-01-29T08:30:55.283Z,100118.81
2023-01-29T08:33:38.613Z,100133.53
2023-01-29T08:36:08.181Z,100135.81
2023-01-29T08:38:37.526Z,100132.06
2023-01-29T08:41:06.156Z,100117.19
2023-01-29T08:43:35.307Z,100137.63
2023-01-29T08:46:04.911Z,100143.34
2023-01-29T08:48:33.362Z,100141.81
2023-01-29T08:51:02.418Z,100152.72
2023-01-29T08:53:30.328Z,100135.72
2023-01-29T08:55:59.697Z,100146.34
2023-01-29T08:58:27.675Z,100149.63
2023-01-29T09:00:55.593Z,100147.94
2023-01-29T09:03:23.576Z,100116.06
2023-01-29T09:05:51.506Z,100149.34
2023-01-29T09:08:19.420Z,100144.59
2023-01-29T09:10:47.318Z,100142.53
2023-01-29T09:13:16.720Z,100144.59
2023-01-29T09:15:44.717Z,100142.28
2023-01-29T09:18:12.787Z,100147.84
2023-01-29T09:20:40.737Z,100140.00
2023-01-29T09:23:10.059Z,100122.19
2023-01-29T09:25:38.622Z,100141.94
2023-01-29T09:28:07.360Z,100143.53
2023-01-29T09:30:38.298Z,100131.94
2023-01-29T09:33:06.628Z,100133.16
2023-01-29T09:35:35.525Z,100132.75
2023-01-29T09:38:03.450Z,100140.56
2023-01-29T09:40:36.689Z,100116.75
2023-01-29T09:43:08.370Z,100118.44
2023-01-29T09:45:39.863Z,100131.16
2023-01-29T09:48:13.762Z,100131.00
2023-01-29T09:50:45.255Z,100125.94
2023-01-29T09:53:19.554Z,100123.16
2023-01-29T09:55:52.571Z,100125.41
2023-01-29T09:58:28.563Z,100124.66
2023-01-29T10:01:08.597Z,100121.16
2023-01-29T10:03:51.809Z,100114.81
2023-01-29T10:06:32.100Z,100119.31
2023-01-29T10:09:36.720Z,100113.31
2023-01-29T10:12:21.183Z,100098.91
2023-01-29T10:15:00.624Z,100112.44
2023-01-29T10:17:50.314Z,100111.31
2023-01-29T10:20:40.526Z,100106.88
2023-01-29T10:23:19.918Z,100102.06
2023-01-29T10:25:49.073Z,100101.34
2023-01-29T10:28:20.295Z,100093.59
2023-01-29T10:30:51.251Z,100092.94
2023-01-29T10:33:29.543Z,100089.84
2023-01-29T10:36:04.005Z,100078.59
2023-01-29T10:38:44.113Z,100083.03
2023-01-29T10:41:49.805Z,100084.66
2023-01-29T10:44:28.455Z,100054.75
2023-01-29T10:47:29.251Z,100075.84
2023-01-29T10:50:22.981Z,100057.50
2023-01-29T10:53:05.201Z,100065.75
2023-01-29T10:55:47.827Z,100052.81
2023-01-29T10:58:23.872Z,100057.66
2023-01-29T11:00:52.682Z,100034.38
2023-01-29T11:03:28.240Z,100050.19
2023-01-29T11:06:05.337Z,100051.19
2023-01-29T11:08:39.107Z,100047.63
2023-01-29T11:11:10.771Z,100053.06
2023-01-29T11:13:43.878Z,100054.91
2023-01-29T11:16:12.248Z,100046.78
2023-01-29T11:18:55.524Z,100044.22
2023-01-29T11:21:25.811Z,100047.44
2023-01-29T11:24:07.652Z,100034.13
2023-01-29T11:26:39.242Z,100030.34
2023-01-29T11:29:35.619Z,100035.50
2023-01-29T11:32:07.143Z,100033.06
2023-01-29T11:34:35.553Z,100007.66
2023-01-29T11:37:13.019Z,100018.06
2023-01-29T11:39:45.541Z,100017.28
2023-01-29T11:42:21.748Z,100014.94
2023-01-29T11:44:50.144Z,100010.28
2023-01-29T11:47:24.086Z,100001.56
2023-01-29T11:49:54.762Z,99994.25
2023-01-29T11:52:26.400Z,100004.56
2023-01-29T11:54:58.397Z,100008.78
2023-01-29T11:57:31.103Z,100008.22
2023-01-29T12:00:03.392Z,100001.97
2023-01-29T12:02:37.051Z,100003.19
2023-01-29T12:05:15.127Z,99999.41
2023-01-29T12:07:47.383Z,99999.69
2023-01-29T12:10:35.462Z,99988.34
2023-01-29T12:13:07.798Z,99988.91
2023-01-29T12:15:35.810Z,99984.31
2023-01-29T12:18:13.377Z,99981.63
2023-01-29T12:20:46.199Z,99983.34
2023-01-29T12:23:29.306Z,99974.34
2023-01-29T12:26:03.895Z,99968.72
2023-01-29T12:28:49.522Z,99975.59
2023-01-29T12:31:29.905Z,99972.69
2023-01-29T12:34:05.697Z,99972.88
2023-01-29T12:36:39.516Z,99945.03
2023-01-29T12:39:11.452Z,99964.38
2023-01-29T12:41:46.205Z,99955.41
2023-01-29T12:44:20.418Z,99961.69
2023-01-29T12:46:53.588Z,99955.34
2023-01-29T12:49:25.047Z,99964.81
2023-01-29T12:51:59.146Z,99967.88
2023-01-29T12:54:36.231Z,99964.38
2023-01-29T12:57:09.900Z,99961.38
2023-01-29T12:59:44.561Z,99964.97
2023-01-29T13:02:24.610Z,99967.22
2023-01-29T13:05:00.494Z,99969.41
2023-01-29T13:07:33.455Z,99951.63
2023-01-29T13:10:09.326Z,99966.81
2023-01-29T13:12:40.927Z,99967.78
2023-01-29T13:15:23.276Z,99969.50
2023-01-29T13:17:55.575Z,99970.50
2023-01-29T13:20:29.980Z,99966.13
2023-01-29T13:23:00.492Z,99966.03
2023-01-29T13:25:29.936Z,99969.34
2023-01-29T13:27:57.890Z,99961.78
2023-01-29T13:30:28.216Z,99959.09
2023-01-29T13:33:09.299Z,99965.16
2023-01-29T13:35:40.398Z,99965.81
2023-01-29T13:38:24.986Z,99965.72
2023-01-29T13:40:58.291Z,99940.31
2023-01-29T13:43:26.666Z,99969.16
2023-01-29T13:45:56.104Z,99876.41
2023-01-29T13:48:28.303Z,99963.63
2023-01-29T13:50:58.515Z,99967.69
2023-01-29T13:53:29.694Z,99967.88
2023-01-29T13:56:42.052Z,99960.63
2023-01-29T13:59:23.544Z,99969.22
2023-01-29T14:02:22.539Z,99965.78
2023-01-29T14:04:50.547Z,99961.59
2023-01-29T14:07:51.723Z,99962.66
2023-01-29T14:10:23.018Z,99968.75
2023-01-29T14:12:56.709Z,99964.53
2023-01-29T14:15:28.008Z,99971.88
2023-01-29T14:18:07.866Z,99966.38
2023-01-29T14:20:46.093Z,99958.88
2023-01-29T14:23:25.146Z,99972.97
2023-01-29T14:25:53.252Z,99981.50
2023-01-29T14:28:27.216Z,99973.47
2023-01-29T14:30:56.601Z,99961.84
2023-01-29T14:33:33.017Z,99979.25
2023-01-29T14:36:05.284Z,99986.72
2023-01-29T14:38:34.415Z,99991.63
2023-01-29T14:41:16.210Z,99996.59
2023-01-29T14:43:45.536Z,99990.72
2023-01-29T14:46:44.501Z,99987.38
2023-01-29T14:49:12.594Z,99998.50
2023-01-29T14:51:45.136Z,99993.34
2023-01-29T14:54:24.299Z,99995.63
2023-01-29T14:56:59.538Z,99993.59
2023-01-29T14:59:35.122Z,99994.00
2023-01-29T15:02:12.918Z,99994.75
2023-01-29T15:04:47.194Z,99993.09
2023-01-29T15:07:29.271Z,99999.94
2023-01-29T15:10:21.420Z,100008.31
2023-01-29T15:12:53.937Z,100002.38
2023-01-29T15:15:33.774Z,100003.03
2023-01-29T15:18:06.935Z,100007.16
2023-01-29T15:20:37.382Z,99997.00
2023-01-29T15:23:23.679Z,99995.41
2023-01-29T15:25:54.257Z,100017.66
2023-01-29T15:28:22.871Z,100016.69
2023-01-29T15:30:56.993Z,100018.03
2023-01-29T15:33:25.251Z,100016.47
2023-01-29T15:36:06.752Z,100023.91
2023-01-29T15:38:36.207Z,100022.97
2023-01-29T15:41:17.296Z,100023.75
2023-01-29T15:43:47.318Z,100027.25
2023-01-29T15:46:23.387Z,100040.38
2023-01-29T15:48:52.188Z,100033.94
2023-01-29T15:51:23.525Z,100040.34
2023-01-29T15:53:55.269Z,100038.25
2023-01-29T15:56:27.914Z,100045.28
2023-01-29T15:58:59.287Z,100048.19
2023-01-29T16:01:31.016Z,100045.28
2023-01-29T16:04:02.426Z,100055.44
2023-01-29T16:06:35.586Z,100057.81
2023-01-29T16:09:05.916Z,100062.38
2023-01-29T16:11:35.260Z,100055.13
2023-01-29T16:14:04.858Z,100067.22
2023-01-29T16:16:34.910Z,100067.13
2023-01-29T16:19:14.630Z,100069.66
2023-01-29T16:21:46.069Z,100068.91
2023-01-29T16:24:22.421Z,100071.94
2023-01-29T16:26:52.717Z,100067.44
2023-01-29T16:29:23.629Z,100073.69
2023-01-29T16:32:00.714Z,100058.41
2023-01-29T16:34:32.731Z,100084.63
2023-01-29T16:37:03.027Z,100077.97
2023-01-29T16:39:35.487Z,100081.75
2023-01-29T16:42:25.228Z,100087.88
2023-01-29T16:44:58.553Z,100085.94
2023-01-29T16:47:39.040Z,100084.28
2023-01-29T16:50:27.171Z,100086.38
2023-01-29T16:53:01.618Z,100086.94
2023-01-29T16:55:36.849Z,100091.41
2023-01-29T16:58:12.358Z,100093.22
2023-01-29T17:00:45.777Z,100087.38
2023-01-29T17:03:17.137Z,100098.97
2023-01-29T17:05:46.654Z,100098.78
2023-01-29T17:08:23.847Z,100097.50
2023-01-29T17:10:52.379Z,100101.41
2023-01-29T17:13:28.497Z,100080.41
2023-01-29T17:16:03.843Z,100098.06
2023-01-29T17:18:33.438Z,100105.38
2023-01-29T17:21:01.382Z,100095.72
2023-01-29T17:23:29.508Z,100104.41
2023-01-29T17:25:57.545Z,100105.59
2023-01-29T17:28:26.258Z,100100.63
2023-01-29T17:31:05.871Z,100090.88
2023-01-29T17:33:37.307Z,100101.19
2023-01-29T17:36:05.863Z,100097.63
2023-01-29T17:38:35.557Z,100099.69
2023-01-29T17:41:07.792Z,100100.00
2023-01-29T17:43:36.116Z,100085.81
2023-01-29T17:46:04.458Z,100110.22
2023-01-29T17:48:32.698Z,100093.19
2023-01-29T17:51:05.248Z,100087.88
2023-01-29T17:53:44.830Z,100098.09
2023-01-29T17:56:18.499Z,100103.44
2023-01-29T17:58:46.666Z,100096.06
2023-01-29T18:01:14.829Z,100090.53
2023-01-29T18:03:42.780Z,100109.34
2023-01-29T18:06:16.319Z,100099.41
2023-01-29T18:08:44.346Z,100098.91
2023-01-29T18:11:13.785Z,100097.09
2023-01-29T18:13:42.362Z,100104.06
2023-01-29T18:16:11.283Z,100103.47
2023-01-29T18:18:40.381Z,100108.25
2023-01-29T18:21:08.976Z,100093.13
2023-01-29T18:23:38.923Z,100114.00
2023-01-29T18:26:08.215Z,100078.69
2023-01-29T18:28:36.245Z,100108.56
2023-01-29T18:31:05.427Z,100100.44
2023-01-29T18:33:34.380Z,100094.00
2023-01-29T18:36:04.986Z,100104.66
2023-01-29T18:38:33.549Z,100090.56
2023-01-29T18:41:11.757Z,100098.81
2023-01-29T18:43:40.714Z,100063.53
2023-01-29T18:46:09.348Z,100092.03
2023-01-29T18:48:41.677Z,100093.84
2023-01-29T18:51:10.780Z,100088.19
2023-01-29T18:53:38.842Z,100090.88
2023-01-29T18:56:10.657Z,100085.13
2023-01-29T18:58:39.175Z,100087.25
2023-01-29T19:01:11.983Z,100078.91
2023-01-29T19:03:40.707Z,100091.41
2023-01-29T19:06:10.780Z,100091.41
2023-01-29T19:08:39.405Z,100091.78
2023-01-29T19:11:09.763Z,100093.19
2023-01-29T19:13:38.400Z,100097.56
2023-01-29T19:16:09.193Z,100108.16
2023-01-29T19:18:37.726Z,100102.94
2023-01-29T19:21:08.668Z,100109.44
2023-01-29T19:23:36.711Z,100104.94
2023-01-29T19:26:05.254Z,100103.38
2023-01-29T19:28:34.963Z,100103.59
2023-01-29T19:31:03.435Z,100096.44
2023-01-29T19:33:31.467Z,100109.28
2023-01-29T19:36:00.314Z,100105.63
2023-01-29T19:38:33.587Z,100117.63
2023-01-29T19:41:02.132Z,100087.97
2023-01-29T19:43:35.006Z,100105.34
2023-01-29T19:46:03.857Z,100088.59
2023-01-29T19:48:31.942Z,100109.38
2023-01-29T19:51:02.301Z,100108.63
2023-01-29T19:53:33.338Z,100111.94
2023-01-29T19:56:03.515Z,100086.66
2023-01-29T19:58:34.264Z,100116.09
2023-01-29T20:01:06.437Z,100117.78
2023-01-29T20:03:34.540Z,100108.38
2023-01-29T20:06:04.103Z,100113.06
2023-01-29T20:08:33.066Z,100104.19
2023-01-29T20:11:00.999Z,100107.69
2023-01-29T20:13:31.279Z,100100.66
2023-01-29T20:16:02.916Z,100101.88
2023-01-29T20:18:32.822Z,100101.22
2023-01-29T20:21:01.553Z,100108.78
2023-01-29T20:23:37.752Z,100100.44
2023-01-29T20:26:07.052Z,100108.88
2023-01-29T20:28:35.840Z,100112.00
2023-01-29T20:31:04.404Z,100108.88
2023-01-29T20:33:34.756Z,100109.75
2023-01-29T20:36:05.956Z,100116.22
2023-01-29T20:38:34.792Z,100100.25
2023-01-29T20:41:06.952Z,100113.16
2023-01-29T20:43:35.109Z,100119.75
2023-01-29T20:46:03.976Z,100108.75
2023-01-29T20:48:34.289Z,100124.88
2023-01-29T20:51:09.867Z,100121.38
2023-01-29T20:53:38.513Z,100126.22
2023-01-29T20:56:07.656Z,100124.28
2023-01-29T20:58:35.753Z,100120.34
2023-01-29T21:01:11.592Z,100098.81
2023-01-29T21:03:41.306Z,100094.50
2023-01-29T21:06:10.474Z,100103.78
2023-01-29T21:08:38.957Z,100094.59
2023-01-29T21:11:08.668Z,100093.59
2023-01-29T21:13:37.152Z,100123.97
2023-01-29T21:16:05.951Z,100111.38
2023-01-29T21:18:33.884Z,100106.25
2023-01-29T21:21:03.291Z,100117.84
2023-01-29T21:23:31.678Z,100114.75
2023-01-29T21:26:03.239Z,100107.88
2023-01-29T21:28:31.228Z,100117.81
2023-01-29T21:31:06.764Z,100125.69
2023-01-29T21:33:35.277Z,100120.63
2023-01-29T21:36:05.136Z,100123.53
2023-01-29T21:38:33.318Z,100124.03
2023-01-29T21:41:02.576Z,100124.28
2023-01-29T21:43:29.555Z,100114.75
2023-01-29T21:45:58.350Z,100119.47
2023-01-29T21:48:26.479Z,100120.69
2023-01-29T21:50:54.758Z,100102.84
2023-01-29T21:53:24.055Z,100111.72
2023-01-29T21:55:52.078Z,100116.00
2023-01-29T21:58:21.004Z,100102.28
2023-01-29T22:00:49.730Z,100110.34
2023-01-29T22:03:18.000Z,100111.72
2023-01-29T22:05:46.406Z,100102.34
2023-01-29T22:08:14.950Z,100107.31
2023-01-29T22:10:44.321Z,100110.38
2023-01-29T22:13:12.471Z,100100.91
2023-01-29T22:15:40.501Z,100090.72
2023-01-29T22:18:08.438Z,100089.28
2023-01-29T22:20:36.809Z,100095.34
2023-01-29T22:23:04.840Z,100086.91
2023-01-29T22:25:33.447Z,100094.25
2023-01-29T22:28:03.961Z,100089.81
2023-01-29T22:30:32.044Z,100089.25
2023-01-29T22:33:00.010Z,100088.31
2023-01-29T22:35:28.007Z,100089.31
2023-01-29T22:37:55.947Z,100080.03
2023-01-29T22:40:24.101Z,100080.00
2023-01-29T22:42:52.098Z,100078.44
2023-01-29T22:45:21.528Z,100077.50
2023-01-29T22:47:49.551Z,100084.13
2023-01-29T22:50:18.119Z,100065.66
2023-01-29T22:52:53.569Z,100071.84
2023-01-29T22:55:21.913Z,100075.81
2023-01-29T22:57:50.375Z,100083.72
2023-01-29T23:00:19.657Z,100077.56
2023-01-29T23:02:49.285Z,100082.34
2023-01-29T23:05:17.968Z,100083.22
2023-01-29T23:07:45.995Z,100075.38
2023-01-29T23:10:16.125Z,100081.09
2023-01-29T23:12:44.283Z,100068.53
2023-01-29T23:15:12.429Z,100069.97
2023-01-29T23:17:40.786Z,100079.00
2023-01-29T23:20:11.902Z,100069.44
2023-01-29T23:22:39.794Z,100065.91
2023-01-29T23:25:08.497Z,100062.78
2023-01-29T23:27:35.758Z,100061.56
2023-01-29T23:30:03.734Z,100062.84
2023-01-29T23:32:32.061Z,100063.50
2023-01-29T23:35:00.013Z,100058.56
2023-01-29T23:37:29.401Z,100051.19
2023-01-29T23:39:57.302Z,100055.78
2023-01-29T23:42:25.234Z,100029.31
2023-01-29T23:44:53.106Z,100023.69
2023-01-29T23:47:21.035Z,100051.09
2023-01-29T23:49:49.089Z,100048.13
2023-01-29T23:52:17.005Z,100046.44
2023-01-29T23:54:46.384Z,100051.38
2023-01-29T23:57:14.442Z,100045.97
2023-01-29T23:59:42.468Z,100046.78
